Time;durP1;ratioP1;P1;durP2;ratioP2;P2;SDS_P1;SDS_P2;PMS_P1;PMS_P2;Temp;Humidity;BMP_temperature;BMP_pressure;BME280_temperature;BME280_humidity;BME280_pressure;Samples;Min_cycle;Max_cycle;Signal;HPM_P1;HPM_P2
2021/06/22 00:01:53;;;;;;;;;2.75;1.25;;;;;16.88;72.86;99826.63;4978122;28;45747;-88
2021/06/22 00:04:19;;;;;;;;;4.00;1.50;;;;;16.87;72.69;99830.28;4959546;28;45945;-88
2021/06/22 00:06:44;;;;;;;;;0.75;0.75;;;;;16.86;73.09;99825.91;4962052;28;45312;-88
2021/06/22 00:09:09;;;;;;;;;2.25;2.00;;;;;16.86;73.30;99825.03;4958772;28;45347;-89
2021/06/22 00:11:35;;;;;;;;;2.75;2.00;;;;;16.88;72.91;99831.16;4963471;28;46956;-88
2021/06/22 00:14:01;;;;;;;;;2.00;1.00;;;;;16.90;73.02;99838.09;4942100;28;46586;-88
2021/06/22 00:16:26;;;;;;;;;0.75;0.75;;;;;16.88;72.41;99840.03;4965917;28;45399;-88
2021/06/22 00:18:51;;;;;;;;;1.00;1.00;;;;;16.86;72.60;99839.31;4948548;28;45980;-90
2021/06/22 00:21:17;;;;;;;;;1.00;1.00;;;;;16.75;72.98;99831.41;4959340;28;45366;-89
2021/06/22 00:23:42;;;;;;;;;1.00;1.00;;;;;16.85;72.58;99848.34;4958687;28;45786;-86
2021/06/22 00:26:08;;;;;;;;;1.00;1.00;;;;;16.78;72.62;99844.56;4956124;28;45682;-89
2021/06/22 00:28:33;;;;;;;;;2.00;2.00;;;;;16.87;73.05;99854.44;4959885;28;45679;-85
2021/06/22 00:30:58;;;;;;;;;1.25;1.00;;;;;16.87;73.15;99846.41;4959286;28;45713;-85
2021/06/22 00:33:24;;;;;;;;;1.50;1.50;;;;;16.95;73.45;99851.06;4959699;28;45439;-88
2021/06/22 00:35:49;;;;;;;;;1.00;1.00;;;;;16.97;73.07;99850.94;4956634;28;47843;-89
2021/06/22 00:38:14;;;;;;;;;2.00;2.00;;;;;17.01;73.43;99853.16;4959125;28;45464;-89
2021/06/22 00:40:40;;;;;;;;;2.00;2.00;;;;;16.99;73.00;99838.22;4955820;28;45392;-88
2021/06/22 00:43:05;;;;;;;;;3.00;3.00;;;;;17.06;73.34;99845.53;4958138;28;45452;-90
2021/06/22 00:45:33;;;;;;;;;3.00;2.00;;;;;17.12;73.41;99840.59;4956468;28;49093;-88
2021/06/22 00:47:59;;;;;;;;;1.25;1.25;;;;;17.12;73.30;99844.13;4958204;28;45388;-87
2021/06/22 00:50:25;;;;;;;;;2.25;1.25;;;;;17.15;73.40;99843.81;4960275;28;46971;-90
2021/06/22 00:52:51;;;;;;;;;2.00;1.25;;;;;17.16;73.38;99840.16;4958719;28;50292;-89
2021/06/22 00:55:38;;;;;;;;;2.00;2.00;;;;;17.16;73.05;99840.16;4957624;28;49164;-86
2021/06/22 00:58:05;;;;;;;;;4.25;2.00;;;;;17.17;72.93;99841.84;4941115;28;45788;-89
2021/06/22 01:00:31;;;;;;;;;2.00;2.00;;;;;17.19;72.93;99833.66;4945790;28;45864;-89
2021/06/22 01:02:57;;;;;;;;;2.00;2.00;;;;;17.20;73.21;99835.31;4955187;28;47893;-89
2021/06/22 01:05:24;;;;;;;;;2.25;2.25;;;;;17.13;72.76;99818.09;4976634;28;47916;-88
2021/06/22 01:07:54;;;;;;;;;1.25;1.25;;;;;17.19;72.74;99825.59;4978362;28;45469;-89
2021/06/22 01:10:21;;;;;;;;;3.00;2.00;;;;;17.19;72.94;99829.13;4977232;28;45333;-88
2021/06/22 01:12:47;;;;;;;;;1.00;1.00;;;;;17.21;72.52;99831.66;4959538;28;47330;-90
2021/06/22 01:15:17;;;;;;;;;1.75;1.75;;;;;17.20;72.74;99836.19;4977066;28;48088;-83
2021/06/22 01:17:43;;;;;;;;;4.00;3.50;;;;;17.22;72.88;99841.41;4977614;28;45909;-89
2021/06/22 01:20:09;;;;;;;;;4.50;3.00;;;;;17.19;73.27;99831.81;4976113;28;45403;-90
2021/06/22 01:22:36;;;;;;;;;3.00;3.00;;;;;17.13;73.00;99820.78;4977157;28;51145;-86
2021/06/22 01:25:02;;;;;;;;;3.50;2.50;;;;;17.12;73.10;99828.00;4977722;28;45440;-89
2021/06/22 01:27:27;;;;;;;;;3.00;3.00;;;;;17.19;72.63;99833.66;4977089;28;45329;-88
2021/06/22 01:29:52;;;;;;;;;2.75;2.75;;;;;17.18;73.03;99837.31;4959810;28;45474;-90
2021/06/22 01:32:18;;;;;;;;;4.00;4.00;;;;;17.10;73.05;99824.59;4977036;28;46997;-89
2021/06/22 01:34:43;;;;;;;;;4.50;2.75;;;;;17.15;73.08;99833.06;4977017;28;45377;-84
2021/06/22 01:37:09;;;;;;;;;3.00;2.25;;;;;17.16;72.83;99834.78;4968413;28;45479;-89
2021/06/22 01:39:35;;;;;;;;;2.50;1.50;;;;;17.10;73.02;99821.91;4977442;28;45378;-88
2021/06/22 01:42:00;;;;;;;;;2.50;2.50;;;;;17.16;73.21;99826.72;4976600;28;50598;-88
2021/06/22 01:44:33;;;;;;;;;4.25;4.25;;;;;17.12;72.81;99830.69;4976911;28;47823;-91
2021/06/22 01:46:58;;;;;;;;;4.25;3.25;;;;;17.16;73.26;99828.53;4976707;28;45450;-87
2021/06/22 01:49:24;;;;;;;;;3.00;3.00;;;;;17.16;73.23;99833.91;4977194;28;45513;-89
2021/06/22 01:51:49;;;;;;;;;6.00;3.00;;;;;17.18;73.34;99835.47;4977582;28;45786;-89
2021/06/22 01:54:15;;;;;;;;;2.00;2.00;;;;;17.19;73.43;99828.28;4976983;28;46558;-89
2021/06/22 01:56:46;;;;;;;;;2.50;2.50;;;;;17.17;73.45;99823.06;4986684;28;50764;-87
2021/06/22 01:59:12;;;;;;;;;2.75;2.75;;;;;17.25;73.62;99830.38;4976849;28;46020;-89
2021/06/22 02:01:37;;;;;;;;;2.75;2.75;;;;;17.28;73.72;99838.13;4946281;28;48641;-88
2021/06/22 02:04:02;;;;;;;;;3.75;3.25;;;;;17.26;73.36;99824.00;4988358;28;45407;-89
2021/06/22 02:06:28;;;;;;;;;3.25;2.50;;;;;17.35;73.33;99833.88;4976439;28;45773;-88
2021/06/22 02:08:53;;;;;;;;;3.00;3.00;;;;;17.33;73.35;99824.25;4983937;28;45399;-88
2021/06/22 02:11:18;;;;;;;;;3.50;3.00;;;;;17.36;72.78;99827.50;4976418;28;45382;-85
2021/06/22 02:13:44;;;;;;;;;3.00;2.00;;;;;17.32;72.66;99823.41;4976303;28;45442;-86
2021/06/22 02:16:10;;;;;;;;;2.00;2.00;;;;;17.36;73.08;99837.41;4976662;28;46705;-88
2021/06/22 02:18:35;;;;;;;;;2.50;2.50;;;;;17.35;73.44;99833.88;4974347;28;46540;-86
2021/06/22 02:21:03;;;;;;;;;3.25;3.25;;;;;17.37;73.20;99834.59;4981035;28;45731;-85
2021/06/22 02:23:28;;;;;;;;;2.75;2.75;;;;;17.32;73.62;99827.97;4975877;28;45611;-90
2021/06/22 02:25:53;;;;;;;;;3.50;2.50;;;;;17.34;73.54;99825.97;4976590;28;45423;-87
2021/06/22 02:28:22;;;;;;;;;5.75;4.75;;;;;17.38;73.40;99832.72;4980219;28;45410;-88
2021/06/22 02:30:49;;;;;;;;;4.00;4.00;;;;;17.37;73.29;99826.53;4974897;28;51403;-89
2021/06/22 02:33:15;;;;;;;;;4.00;4.00;;;;;17.46;73.39;99835.53;4963405;28;47847;-88
2021/06/22 02:35:40;;;;;;;;;6.25;4.25;;;;;17.41;73.19;99827.94;4977055;28;45523;-90
2021/06/22 02:38:06;;;;;;;;;7.00;5.00;;;;;17.41;73.21;99821.69;4959645;28;45463;-90
2021/06/22 02:40:32;;;;;;;;;5.75;4.00;;;;;17.49;73.74;99835.25;4976734;28;52006;-88
2021/06/22 02:42:58;;;;;;;;;5.00;4.00;;;;;17.49;73.79;99829.88;4975922;28;47837;-89
2021/06/22 02:45:24;;;;;;;;;5.50;5.00;;;;;17.50;73.75;99831.56;4974547;28;45419;-86
2021/06/22 02:47:50;;;;;;;;;4.00;4.00;;;;;17.52;73.83;99831.41;4976530;28;45434;-85
2021/06/22 02:50:17;;;;;;;;;4.00;4.00;;;;;17.53;73.55;99833.09;4989165;28;45995;-89
2021/06/22 02:52:43;;;;;;;;;5.00;4.00;;;;;17.54;73.76;99835.66;4976791;28;48068;-90
2021/06/22 02:55:19;;;;;;;;;5.00;5.00;;;;;17.56;73.91;99835.50;4977286;28;45451;-89
2021/06/22 02:57:55;;;;;;;;;7.25;7.25;;;;;17.59;74.16;99837.91;4975845;28;45428;-88
2021/06/22 03:00:23;;;;;;;;;9.50;9.50;;;;;17.62;73.60;99842.13;4966722;28;50216;-87
2021/06/22 03:02:49;;;;;;;;;7.00;7.00;;;;;17.63;73.93;99836.59;4985209;28;47919;-90
2021/06/22 03:05:15;;;;;;;;;7.00;7.00;;;;;17.64;73.86;99838.28;4991215;28;46443;-84
2021/06/22 03:07:41;;;;;;;;;8.75;6.75;;;;;17.60;73.77;99826.16;4976502;28;45521;-87
2021/06/22 03:10:09;;;;;;;;;7.75;7.75;;;;;17.70;73.66;99847.59;4975408;28;46357;-90
2021/06/22 03:12:34;;;;;;;;;7.00;7.00;;;;;17.65;73.92;99836.47;4976577;28;47918;-88
2021/06/22 03:15:00;;;;;;;;;8.25;7.00;;;;;17.71;73.50;99843.91;4981866;28;45392;-87
2021/06/22 03:17:25;;;;;;;;;8.50;6.50;;;;;17.73;73.66;99845.47;4958895;28;45537;-87
2021/06/22 03:19:51;;;;;;;;;7.00;6.25;;;;;17.73;73.78;99834.72;4974988;28;47310;-88
2021/06/22 03:22:16;;;;;;;;;7.00;7.00;;;;;17.78;73.58;99842.31;4976483;28;45476;-88
2021/06/22 03:24:42;;;;;;;;;5.50;5.50;;;;;17.79;73.81;99844.03;4976020;28;45312;-89
2021/06/22 03:27:07;;;;;;;;;11.00;8.50;;;;;17.74;73.70;99833.72;4975369;28;47718;-87
2021/06/22 03:29:32;;;;;;;;;9.00;8.50;;;;;17.80;73.92;99842.19;4976983;28;46395;-90
2021/06/22 03:31:58;;;;;;;;;8.75;7.75;;;;;17.81;73.79;99849.25;4965536;28;45823;-87
2021/06/22 03:34:23;;;;;;;;;8.75;6.50;;;;;17.79;74.01;99854.78;4987851;28;45335;-85
2021/06/22 03:36:49;;;;;;;;;14.00;8.50;;;;;17.76;73.97;99838.94;4980497;28;46700;-90
2021/06/22 03:39:14;;;;;;;;;8.00;8.00;;;;;17.82;73.98;99848.28;4977609;28;51287;-91
2021/06/22 03:41:39;;;;;;;;;9.00;8.00;;;;;17.83;73.96;99847.25;4979690;28;49089;-87
2021/06/22 03:44:05;;;;;;;;;10.75;8.00;;;;;17.80;73.96;99840.34;4979036;28;45440;-90
2021/06/22 03:46:32;;;;;;;;;11.50;8.00;;;;;17.88;73.87;99850.34;4967204;28;45911;-89
2021/06/22 03:48:57;;;;;;;;;12.00;11.00;;;;;17.84;73.73;99841.75;4977066;28;50274;-90
2021/06/22 03:51:22;;;;;;;;;12.75;12.75;;;;;17.86;73.72;99838.91;4978395;28;45435;-89
2021/06/22 03:53:48;;;;;;;;;13.25;12.00;;;;;17.84;73.66;99843.56;4978596;28;45402;-89
2021/06/22 03:56:15;;;;;;;;;11.25;10.50;;;;;17.87;74.19;99852.19;4961928;28;45439;-89
2021/06/22 03:58:42;;;;;;;;;13.75;12.50;;;;;17.87;74.24;99854.03;4978407;28;50377;-91
2021/06/22 04:01:07;;;;;;;;;13.50;11.50;;;;;17.89;74.16;99869.03;4974791;28;47589;-89
2021/06/22 04:03:32;;;;;;;;;14.75;13.00;;;;;17.92;74.09;99876.81;4961461;28;45897;-88
2021/06/22 04:05:58;;;;;;;;;16.25;15.00;;;;;17.89;74.22;99871.72;4979907;28;45429;-89
2021/06/22 04:08:23;;;;;;;;;14.75;14.75;;;;;17.95;74.05;99873.00;4978787;28;51422;-89
2021/06/22 04:10:48;;;;;;;;;15.25;13.25;;;;;17.98;74.13;99878.06;4979314;28;45389;-83
2021/06/22 04:13:14;;;;;;;;;16.50;14.00;;;;;17.99;74.00;99884.31;4977575;28;45426;-87
2021/06/22 04:15:39;;;;;;;;;14.00;14.00;;;;;17.99;74.22;99866.31;4978346;28;45408;-85
2021/06/22 04:18:08;;;;;;;;;15.25;14.00;;;;;18.05;73.81;99876.47;4977713;28;45628;-85
2021/06/22 04:20:35;;;;;;;;;14.75;14.75;;;;;18.07;73.96;99876.31;4972608;28;49762;-86
2021/06/22 04:23:00;;;;;;;;;13.75;13.75;;;;;18.04;74.11;99865.88;4967203;28;45375;-88
2021/06/22 04:25:26;;;;;;;;;15.25;15.25;;;;;17.98;73.83;99858.41;4979504;28;45467;-89
2021/06/22 04:27:52;;;;;;;;;15.00;13.00;;;;;18.00;74.25;99859.94;4978129;28;48048;-88
2021/06/22 04:30:17;;;;;;;;;14.75;14.25;;;;;18.14;73.57;99879.25;4978324;28;45342;-88
2021/06/22 04:32:43;;;;;;;;;13.50;13.50;;;;;18.13;73.73;99889.19;4971050;28;45421;-88
2021/06/22 04:35:09;;;;;;;;;16.50;15.25;;;;;18.14;73.95;99884.63;4983222;28;45710;-86
2021/06/22 04:37:34;;;;;;;;;16.50;14.25;;;;;18.17;73.44;99889.72;4960723;28;48441;-90
2021/06/22 04:40:00;;;;;;;;;16.25;16.25;;;;;18.15;73.77;99881.78;4978199;28;45470;-89
2021/06/22 04:42:25;;;;;;;;;15.75;15.50;;;;;18.18;73.88;99886.03;4960309;28;45396;-89
2021/06/22 04:44:51;;;;;;;;;19.25;16.50;;;;;18.22;74.01;99899.03;4978630;28;46434;-89
2021/06/22 04:47:16;;;;;;;;;22.00;18.25;;;;;18.18;73.96;99892.25;4977399;28;45965;-86
2021/06/22 04:49:41;;;;;;;;;20.75;16.75;;;;;18.17;73.94;99887.03;4977276;28;45507;-90
2021/06/22 04:52:09;;;;;;;;;24.50;21.75;;;;;18.22;73.96;99899.03;4977365;28;45638;-90
2021/06/22 04:54:34;;;;;;;;;19.00;17.25;;;;;18.22;74.22;99892.81;4977531;28;45409;-86
2021/06/22 04:57:00;;;;;;;;;15.50;14.75;;;;;18.28;74.47;99892.19;4993276;28;48457;-85
2021/06/22 04:59:25;;;;;;;;;16.00;16.00;;;;;18.34;74.33;99890.75;4978210;28;46443;-85
2021/06/22 05:01:50;;;;;;;;;18.00;16.00;;;;;18.31;74.30;99882.97;4962158;28;45476;-85
2021/06/22 05:04:16;;;;;;;;;14.25;13.75;;;;;18.43;73.90;99906.84;4990775;28;45422;-88
2021/06/22 05:06:41;;;;;;;;;22.50;19.50;;;;;18.44;74.05;99892.38;4978303;28;51244;-83
2021/06/22 05:09:06;;;;;;;;;18.25;17.00;;;;;18.47;73.88;99899.31;4975590;28;45356;-83
2021/06/22 05:11:32;;;;;;;;;20.00;17.75;;;;;18.48;73.42;99892.09;4987777;28;45451;-85
2021/06/22 05:13:57;;;;;;;;;20.00;17.50;;;;;18.45;73.65;99893.22;4975208;28;45610;-87
2021/06/22 05:16:23;;;;;;;;;16.75;16.00;;;;;18.53;73.42;99897.88;4992160;28;45383;-86
2021/06/22 05:18:49;;;;;;;;;17.00;17.00;;;;;18.37;73.88;99872.47;4978962;28;45464;-87
2021/06/22 05:21:15;;;;;;;;;16.75;14.50;;;;;18.49;73.74;99889.22;4960431;28;45408;-90
2021/06/22 05:23:41;;;;;;;;;17.00;16.25;;;;;18.62;73.72;99907.69;4977297;28;45455;-89
2021/06/22 05:26:07;;;;;;;;;21.00;17.50;;;;;18.65;73.57;99904.69;4976674;28;50312;-87
2021/06/22 05:28:32;;;;;;;;;18.25;17.50;;;;;18.69;74.18;99894.47;4976811;28;45343;-84
2021/06/22 05:30:57;;;;;;;;;19.00;16.50;;;;;18.72;73.41;99899.56;4958381;28;45591;-85
2021/06/22 05:33:23;;;;;;;;;19.50;17.75;;;;;18.78;73.42;99905.19;4977296;28;45331;-89
2021/06/22 05:35:48;;;;;;;;;18.50;15.75;;;;;18.70;72.82;99888.94;4977122;28;50125;-88
2021/06/22 05:38:14;;;;;;;;;17.00;16.25;;;;;18.83;72.98;99912.78;4977217;28;47754;-87
2021/06/22 05:40:40;;;;;;;;;20.25;18.00;;;;;18.85;73.08;99916.16;4975176;28;45387;-86
2021/06/22 05:43:05;;;;;;;;;20.50;16.75;;;;;18.85;73.03;99916.16;4975865;28;46088;-88
2021/06/22 05:45:31;;;;;;;;;19.50;17.50;;;;;18.92;73.41;99921.81;4976878;28;45461;-87
2021/06/22 05:47:56;;;;;;;;;17.00;15.50;;;;;18.99;73.54;99917.50;4976727;28;45348;-87
2021/06/22 05:50:22;;;;;;;;;17.75;16.75;;;;;19.05;73.19;99924.13;4990664;28;45454;-88
2021/06/22 05:52:49;;;;;;;;;17.50;17.50;;;;;19.05;72.98;99916.88;4991122;28;45422;-87
2021/06/22 05:55:20;;;;;;;;;19.00;17.00;;;;;19.13;72.80;99927.72;4976386;28;51206;-89
2021/06/22 05:57:52;;;;;;;;;17.75;17.75;;;;;19.17;72.98;99930.09;4959509;28;49946;-88
2021/06/22 06:00:20;;;;;;;;;18.00;17.75;;;;;19.17;72.56;99927.41;4977397;28;45449;-89
2021/06/22 06:02:45;;;;;;;;;21.25;18.25;;;;;19.12;72.41;99925.19;4968383;28;45907;-88
2021/06/22 06:05:11;;;;;;;;;15.00;14.50;;;;;19.13;72.78;99935.81;4959224;28;48111;-89
2021/06/22 06:07:37;;;;;;;;;17.50;16.25;;;;;19.13;73.03;99941.19;4984043;28;47996;-83
2021/06/22 06:10:04;;;;;;;;;16.00;14.50;;;;;19.17;72.51;99946.28;4995302;28;45933;-78
2021/06/22 06:12:29;;;;;;;;;20.50;18.75;;;;;19.17;72.86;99941.75;4996712;28;45514;-80
2021/06/22 06:14:54;;;;;;;;;30.00;27.75;;;;;19.18;72.43;99938.03;4995922;28;45402;-80
2021/06/22 06:17:20;;;;;;;;;33.75;30.00;;;;;19.22;72.86;99947.50;4995768;28;45606;-81
2021/06/22 06:19:45;;;;;;;;;34.33;31.33;;;;;19.25;72.17;99939.13;4994800;28;46327;-82
2021/06/22 06:22:11;;;;;;;;;22.25;20.25;;;;;19.12;72.49;99917.94;4996118;28;45446;-84
2021/06/22 06:24:36;;;;;;;;;24.00;22.75;;;;;19.28;72.16;99932.56;4995451;28;45446;-83
2021/06/22 06:27:05;;;;;;;;;21.25;19.75;;;;;19.29;72.15;99928.88;4995986;28;46249;-83
2021/06/22 06:32:08;;;;;;;;;18.50;16.50;;;;;19.47;72.17;99953.09;4982582;28;45489;-79
2021/06/22 06:34:33;;;;;;;;;20.50;18.75;;;;;19.47;72.04;99950.41;4985940;28;50023;-81
2021/06/22 06:36:59;;;;;;;;;27.25;23.00;;;;;19.47;71.89;99953.09;4996068;28;49560;-81
2021/06/22 06:39:24;;;;;;;;;20.00;18.75;;;;;19.47;71.88;99963.88;4995750;28;45403;-80
2021/06/22 06:41:49;;;;;;;;;18.75;18.75;;;;;19.42;71.56;99941.94;4995779;28;45985;-82
2021/06/22 06:44:15;;;;;;;;;21.50;20.00;;;;;19.44;71.83;99948.88;4988641;28;45618;-81
2021/06/22 06:46:40;;;;;;;;;18.75;18.75;;;;;19.49;71.61;99956.47;4976494;28;45420;-90
2021/06/22 06:49:05;;;;;;;;;24.00;20.50;;;;;19.48;71.92;99952.06;4977111;28;45356;-90
2021/06/22 06:51:31;;;;;;;;;20.50;19.75;;;;;19.51;71.36;99951.78;4976978;28;45417;-89
2021/06/22 06:53:57;;;;;;;;;22.00;20.00;;;;;19.53;70.80;99957.00;4975488;28;45362;-88
2021/06/22 06:56:22;;;;;;;;;19.75;19.75;;;;;19.49;71.17;99959.16;4977889;28;48953;-89
2021/06/22 06:58:48;;;;;;;;;19.75;18.50;;;;;19.47;71.21;99953.94;4951810;28;45504;-84
2021/06/22 07:01:13;;;;;;;;;26.25;22.25;;;;;19.48;70.89;99957.47;4966967;28;45491;-90
2021/06/22 07:03:38;;;;;;;;;26.25;22.00;;;;;19.47;71.15;99967.41;4975240;28;52982;-91
2021/06/22 07:06:04;;;;;;;;;21.50;21.50;;;;;19.47;70.93;99972.81;4978518;28;48458;-88
2021/06/22 07:08:29;;;;;;;;;25.00;22.50;;;;;19.44;70.78;99966.91;4982217;28;47663;-89
2021/06/22 07:10:55;;;;;;;;;22.00;19.00;;;;;19.40;70.63;99977.13;4979965;28;45800;-88
2021/06/22 07:13:21;;;;;;;;;24.50;20.00;;;;;19.39;70.98;99980.00;4979138;28;49984;-88
2021/06/22 07:15:47;;;;;;;;;25.25;21.75;;;;;19.37;70.96;99981.97;4976159;28;49049;-89
2021/06/22 07:18:12;;;;;;;;;20.25;19.00;;;;;19.37;71.13;99979.28;4977705;28;45476;-89
2021/06/22 07:20:38;;;;;;;;;27.25;20.75;;;;;19.34;71.10;99982.28;4976685;28;45434;-89
2021/06/22 07:23:03;;;;;;;;;24.00;23.25;;;;;19.22;71.05;99977.13;4960293;28;46955;-88
2021/06/22 07:25:28;;;;;;;;;23.25;22.75;;;;;19.20;71.35;99983.72;4976876;28;45355;-89
2021/06/22 07:27:55;;;;;;;;;26.75;22.50;;;;;19.12;71.31;99974.53;4977221;28;45663;-86
2021/06/22 07:30:24;;;;;;;;;26.75;23.00;;;;;19.06;70.99;99985.09;4976643;28;45507;-90
2021/06/22 07:32:51;;;;;;;;;24.25;20.00;;;;;19.00;71.37;99980.31;4977286;28;51762;-85
2021/06/22 07:35:16;;;;;;;;;20.75;19.25;;;;;18.92;71.62;99981.06;4977339;28;47626;-84
2021/06/22 07:37:42;;;;;;;;;24.00;23.00;;;;;18.87;71.42;99984.25;4960433;28;45421;-84
2021/06/22 07:40:09;;;;;;;;;29.25;26.75;;;;;18.89;72.16;99989.47;4976668;28;45888;-86
2021/06/22 07:42:34;;;;;;;;;22.00;20.75;;;;;18.87;72.08;99989.63;4977624;28;50316;-88
2021/06/22 07:45:00;;;;;;;;;27.25;24.25;;;;;18.57;71.61;99942.31;4977476;28;45359;-91
2021/06/22 07:47:25;;;;;;;;;19.50;18.50;;;;;18.69;71.81;99973.41;4960500;28;45838;-89
2021/06/22 07:49:50;;;;;;;;;16.75;16.75;;;;;18.72;71.98;99989.25;4976518;28;45315;-90
2021/06/22 07:52:16;;;;;;;;;17.50;17.00;;;;;18.75;72.30;100002.41;4959769;28;46996;-89
2021/06/22 07:54:41;;;;;;;;;17.50;15.75;;;;;18.62;71.95;99989.31;4986424;28;45478;-91
2021/06/22 07:57:07;;;;;;;;;22.75;19.75;;;;;18.65;72.01;100004.31;4997879;28;45418;-90
2021/06/22 07:59:32;;;;;;;;;15.25;13.50;;;;;18.58;72.10;100001.41;4996466;28;45490;-90
2021/06/22 08:01:58;;;;;;;;;13.25;13.00;;;;;18.61;72.36;100019.94;4988128;28;46536;-91
2021/06/22 08:04:23;;;;;;;;;16.50;13.50;;;;;18.55;73.33;100017.84;4975634;28;45409;-89
2021/06/22 08:06:51;;;;;;;;;17.25;15.75;;;;;18.47;73.10;100004.28;4996734;28;45506;-91
2021/06/22 08:09:17;;;;;;;;;10.00;9.75;;;;;18.55;72.94;100023.22;4996764;28;45462;-90
2021/06/22 08:11:42;;;;;;;;;8.25;6.75;;;;;18.48;72.57;100024.81;4978514;28;47311;-92
2021/06/22 08:14:07;;;;;;;;;4.50;4.50;;;;;18.36;71.78;100026.84;4996120;28;45470;-90
2021/06/22 08:16:33;;;;;;;;;5.50;5.50;;;;;18.33;71.02;100028.97;4998306;28;46465;-90
2021/06/22 08:18:58;;;;;;;;;6.00;6.00;;;;;18.14;71.85;100011.91;4981965;28;45336;-89
2021/06/22 08:21:24;;;;;;;;;6.75;6.50;;;;;18.17;71.70;100032.31;5000766;28;45981;-91
2021/06/22 08:23:49;;;;;;;;;10.25;7.75;;;;;18.05;72.36;100028.97;4984100;28;45454;-91
2021/06/22 08:26:15;;;;;;;;;11.50;9.25;;;;;18.03;72.84;100020.19;5003612;28;45402;-90
2021/06/22 08:28:40;;;;;;;;;7.00;7.00;;;;;18.11;73.25;100028.38;5003901;28;45369;-91
2021/06/22 08:31:06;;;;;;;;;12.50;9.50;;;;;18.12;73.01;100027.38;4993934;28;45969;-91
2021/06/22 08:33:31;;;;;;;;;15.25;12.50;;;;;18.21;73.31;100037.28;5002405;28;46369;-89
2021/06/22 08:35:56;;;;;;;;;16.25;16.25;;;;;18.26;73.17;100044.91;5002473;28;45296;-90
2021/06/22 08:38:22;;;;;;;;;21.75;19.25;;;;;18.33;73.34;100045.13;5002426;28;45461;-92
2021/06/22 08:40:48;;;;;;;;;23.25;22.25;;;;;18.32;73.50;100040.75;5001436;28;45416;-91
2021/06/22 08:43:16;;;;;;;;;31.50;27.00;;;;;18.33;73.26;100043.31;5001998;28;48851;-90
2021/06/22 08:45:42;;;;;;;;;31.75;29.00;;;;;18.22;72.86;100040.81;5000758;28;45445;-91
2021/06/22 08:48:09;;;;;;;;;28.00;27.25;;;;;18.21;73.48;100045.34;5000441;28;45345;-87
2021/06/22 08:50:43;;;;;;;;;30.75;27.25;;;;;18.17;73.21;100043.06;5000352;28;46074;-93
2021/06/22 08:53:11;;;;;;;;;25.50;23.00;;;;;18.21;73.45;100044.47;5000914;28;49153;-91
2021/06/22 08:55:36;;;;;;;;;28.50;26.50;;;;;18.21;72.99;100042.66;4997720;28;45420;-89
2021/06/22 08:58:10;;;;;;;;;27.25;24.25;;;;;18.26;72.79;100061.03;5003003;28;45433;-88
2021/06/22 09:00:41;;;;;;;;;25.25;22.00;;;;;18.26;72.70;100051.13;5003399;28;51829;-93
2021/06/22 09:03:14;;;;;;;;;29.25;25.75;;;;;18.31;73.03;100052.53;4976486;28;47908;-92
2021/06/22 09:05:48;;;;;;;;;28.75;25.50;;;;;18.36;73.04;100051.09;5004360;28;45382;-90
2021/06/22 09:08:16;;;;;;;;;27.75;24.00;;;;;18.37;72.77;100047.41;5004697;28;45307;-85
2021/06/22 09:10:42;;;;;;;;;25.50;23.25;;;;;18.35;72.46;100041.31;4985272;28;52194;-86
2021/06/22 09:13:12;;;;;;;;;20.25;17.50;;;;;18.38;72.30;100054.47;4997319;28;46578;-90
2021/06/22 09:15:39;;;;;;;;;21.50;19.50;;;;;18.43;72.01;100059.41;4997602;28;45371;-90
2021/06/22 09:18:04;;;;;;;;;20.75;20.50;;;;;18.48;71.98;100067.03;5001445;28;45343;-90
2021/06/22 09:20:32;;;;;;;;;22.00;18.25;;;;;18.54;71.45;100069.13;4997550;28;46258;-91
2021/06/22 09:23:17;;;;;;;;;19.25;18.00;;;;;18.55;71.57;100073.53;4998161;28;48123;-91
2021/06/22 09:25:44;;;;;;;;;23.50;22.00;;;;;18.50;71.76;100062.34;4995760;28;45528;-82
2021/06/22 09:28:10;;;;;;;;;21.00;16.75;;;;;18.50;71.71;100078.50;4979071;28;45450;-89
2021/06/22 09:30:42;;;;;;;;;21.00;19.50;;;;;18.49;71.84;100085.75;4997467;28;46024;-89
2021/06/22 09:33:23;;;;;;;;;21.00;19.00;;;;;18.44;71.28;100088.00;4997607;28;47991;-89
2021/06/22 09:35:57;;;;;;;;;19.75;18.75;;;;;18.36;71.83;100083.38;4979176;28;46174;-84
2021/06/22 09:38:22;;;;;;;;;22.75;19.50;;;;;18.36;71.71;100091.44;4998868;28;45401;-89
2021/06/22 09:41:02;;;;;;;;;21.25;18.50;;;;;18.29;72.00;100083.09;4996435;28;51453;-88
2021/06/22 09:43:35;;;;;;;;;19.00;15.00;;;;;18.23;72.00;100096.31;4997851;28;49300;-91
2021/06/22 09:46:00;;;;;;;;;13.50;13.50;;;;;18.18;71.92;100102.13;4997743;28;45385;-89
2021/06/22 09:48:26;;;;;;;;;15.25;14.00;;;;;18.04;72.15;100095.38;4995280;28;45442;-86
2021/06/22 09:50:51;;;;;;;;;17.00;13.75;;;;;18.12;72.25;100116.16;4994399;28;45804;-92
2021/06/22 09:53:30;;;;;;;;;15.25;15.25;;;;;18.06;72.37;100127.50;4999804;28;45447;-89
2021/06/22 09:55:57;;;;;;;;;15.50;13.50;;;;;17.95;72.81;100125.81;4989618;28;45563;-90
2021/06/22 09:58:35;;;;;;;;;13.00;13.00;;;;;17.77;73.12;100121.13;4997059;28;45410;-85
2021/06/22 10:01:01;;;;;;;;;11.75;11.00;;;;;17.75;73.82;100139.22;4997108;28;50316;-89
2021/06/22 10:03:37;;;;;;;;;14.00;12.50;;;;;17.63;73.97;100120.69;4983058;28;45387;-82
2021/06/22 10:06:07;;;;;;;;;18.25;11.50;;;;;17.60;74.86;100124.53;4970324;28;45453;-86
2021/06/22 10:08:49;;;;;;;;;12.00;10.75;;;;;17.48;75.19;100121.09;4978474;28;46558;-89
2021/06/22 10:11:33;;;;;;;;;11.50;10.75;;;;;17.33;75.86;100125.19;4969874;28;50118;-86
2021/06/22 10:13:59;;;;;;;;;14.75;12.25;;;;;17.17;76.25;100118.53;4971002;28;49359;-89
2021/06/22 10:16:26;;;;;;;;;11.75;10.50;;;;;17.01;76.78;100116.34;4997906;28;44788;-90
2021/06/22 10:18:52;;;;;;;;;10.25;10.25;;;;;16.94;77.72;100128.63;5003133;28;45430;-87
2021/06/22 10:21:18;;;;;;;;;7.50;7.50;;;;;16.83;78.10;100129.56;5003891;28;46624;-86
2021/06/22 10:23:43;;;;;;;;;9.75;6.50;;;;;16.79;78.32;100135.31;5002979;28;45402;-89
2021/06/22 10:26:10;;;;;;;;;12.00;8.50;;;;;16.70;78.37;100131.63;4986000;28;45386;-89
2021/06/22 10:28:36;;;;;;;;;7.50;7.50;;;;;16.58;78.66;100141.59;5003734;28;45347;-91
2021/06/22 10:31:03;;;;;;;;;5.75;5.75;;;;;16.53;78.95;100154.56;5003203;28;52595;-85
2021/06/22 10:33:30;;;;;;;;;7.50;7.50;;;;;16.47;79.04;100155.09;4988431;28;45488;-91
2021/06/22 10:35:56;;;;;;;;;5.75;5.75;;;;;16.39;79.63;100164.66;5001761;28;46746;-90
2021/06/22 10:38:22;;;;;;;;;5.25;4.00;;;;;16.36;79.56;100164.06;4998440;28;45358;-89
2021/06/22 10:40:55;;;;;;;;;7.00;7.00;;;;;16.35;80.17;100165.06;4997971;28;45961;-92
2021/06/22 10:43:36;;;;;;;;;5.25;5.25;;;;;16.33;80.19;100162.53;4997993;28;48768;-85
2021/06/22 10:46:05;;;;;;;;;4.75;4.75;;;;;16.29;79.90;100154.84;4997692;28;45443;-85
2021/06/22 10:48:48;;;;;;;;;7.25;4.75;;;;;16.20;80.13;100164.53;4998015;28;45426;-89
2021/06/22 10:51:30;;;;;;;;;5.50;5.00;;;;;16.21;79.95;100171.63;4989853;28;51267;-90
2021/06/22 10:53:58;;;;;;;;;4.00;3.50;;;;;16.19;80.17;100184.31;4972974;28;49802;-89
2021/06/22 10:56:25;;;;;;;;;5.75;4.50;;;;;16.16;80.68;100189.91;4978274;28;45521;-91
2021/06/22 10:59:14;;;;;;;;;3.75;3.75;;;;;16.13;80.28;100188.38;4980270;28;45335;-88
2021/06/22 11:02:00;;;;;;;;;6.50;6.50;;;;;16.09;80.63;100183.38;4995774;28;51541;-88
2021/06/22 11:04:26;;;;;;;;;9.00;9.00;;;;;16.08;80.09;100197.78;4969015;28;49222;-86
2021/06/22 11:07:06;;;;;;;;;12.50;10.25;;;;;16.05;80.96;100207.78;4977191;28;47807;-89
2021/06/22 11:09:33;;;;;;;;;5.00;5.00;;;;;16.05;81.21;100207.78;4963335;28;46293;-88
2021/06/22 11:12:21;;;;;;;;;7.00;6.50;;;;;16.04;80.98;100216.78;4997136;28;51003;-88
2021/06/22 11:14:58;;;;;;;;;4.00;4.00;;;;;16.03;81.06;100217.78;4994993;28;48397;-87
2021/06/22 11:17:42;;;;;;;;;4.00;3.75;;;;;16.03;80.95;100216.91;4995062;28;45524;-87
2021/06/22 11:20:09;;;;;;;;;5.00;5.00;;;;;16.02;81.33;100220.59;4993733;28;45485;-88
2021/06/22 11:23:04;;;;;;;;;6.50;5.00;;;;;16.00;80.82;100218.06;4996188;28;50931;-88
2021/06/22 11:25:49;;;;;;;;;7.75;6.00;;;;;15.96;80.95;100219.28;4961244;28;48286;-89